sensor_id;sensor_type;location;lat;lon;timestamp;P1;durP1;ratioP1;P2;durP2;ratioP2
8050;SDS011;4068;42.158;24.732;2022-12-29T00:01:24;29.07;;;12.67;;
8050;SDS011;4068;42.158;24.732;2022-12-29T00:03:49;20.13;;;12.23;;
8050;SDS011;4068;42.158;24.732;2022-12-29T00:06:15;26.90;;;12.40;;
8050;SDS011;4068;42.158;24.732;2022-12-29T00:08:40;22.50;;;12.20;;
8050;SDS011;4068;42.158;24.732;2022-12-29T00:11:10;30.53;;;12.43;;
8050;SDS011;4068;42.158;24.732;2022-12-29T00:13:37;32.00;;;12.00;;
8050;SDS011;4068;42.158;24.732;2022-12-29T00:16:22;23.57;;;11.77;;
8050;SDS011;4068;42.158;24.732;2022-12-29T00:18:47;28.40;;;12.27;;
8050;SDS011;4068;42.158;24.732;2022-12-29T00:21:13;25.87;;;11.77;;
8050;SDS011;4068;42.158;24.732;2022-12-29T00:23:59;29.23;;;12.03;;
8050;SDS011;4068;42.158;24.732;2022-12-29T00:26:40;72.80;;;13.73;;
8050;SDS011;4068;42.158;24.732;2022-12-29T00:29:24;45.30;;;13.13;;
8050;SDS011;4068;42.158;24.732;2022-12-29T00:32:09;36.03;;;13.27;;
8050;SDS011;4068;42.158;24.732;2022-12-29T00:34:53;31.33;;;12.33;;
8050;SDS011;4068;42.158;24.732;2022-12-29T00:37:37;31.03;;;11.97;;
8050;SDS011;4068;42.158;24.732;2022-12-29T00:40:24;24.17;;;11.40;;
8050;SDS011;4068;42.158;24.732;2022-12-29T00:43:08;27.00;;;12.03;;
8050;SDS011;4068;42.158;24.732;2022-12-29T00:45:52;22.13;;;12.60;;
8050;SDS011;4068;42.158;24.732;2022-12-29T00:48:17;25.00;;;12.90;;
8050;SDS011;4068;42.158;24.732;2022-12-29T00:51:03;32.00;;;13.97;;
8050;SDS011;4068;42.158;24.732;2022-12-29T00:53:28;24.10;;;12.77;;
8050;SDS011;4068;42.158;24.732;2022-12-29T00:55:53;27.07;;;14.07;;
8050;SDS011;4068;42.158;24.732;2022-12-29T00:58:19;26.37;;;13.50;;
8050;SDS011;4068;42.158;24.732;2022-12-29T01:00:44;32.53;;;14.27;;
8050;SDS011;4068;42.158;24.732;2022-12-29T01:03:10;26.80;;;13.93;;
8050;SDS011;4068;42.158;24.732;2022-12-29T01:05:36;24.00;;;14.13;;
8050;SDS011;4068;42.158;24.732;2022-12-29T01:08:01;34.90;;;15.33;;
8050;SDS011;4068;42.158;24.732;2022-12-29T01:10:27;25.50;;;14.83;;
8050;SDS011;4068;42.158;24.732;2022-12-29T01:12:53;28.03;;;14.20;;
8050;SDS011;4068;42.158;24.732;2022-12-29T01:15:19;31.70;;;14.77;;
8050;SDS011;4068;42.158;24.732;2022-12-29T01:17:44;28.50;;;14.07;;
8050;SDS011;4068;42.158;24.732;2022-12-29T01:20:10;25.73;;;14.63;;
8050;SDS011;4068;42.158;24.732;2022-12-29T01:22:36;29.60;;;15.10;;
8050;SDS011;4068;42.158;24.732;2022-12-29T01:25:02;24.73;;;14.47;;
8050;SDS011;4068;42.158;24.732;2022-12-29T01:27:28;29.13;;;14.33;;
8050;SDS011;4068;42.158;24.732;2022-12-29T01:29:53;24.27;;;13.27;;
8050;SDS011;4068;42.158;24.732;2022-12-29T01:32:19;28.30;;;14.17;;
8050;SDS011;4068;42.158;24.732;2022-12-29T01:34:44;26.70;;;14.43;;
8050;SDS011;4068;42.158;24.732;2022-12-29T01:37:10;35.13;;;14.30;;
8050;SDS011;4068;42.158;24.732;2022-12-29T01:39:35;27.63;;;13.80;;
8050;SDS011;4068;42.158;24.732;2022-12-29T01:42:01;24.53;;;13.60;;
8050;SDS011;4068;42.158;24.732;2022-12-29T01:44:46;25.03;;;14.37;;
8050;SDS011;4068;42.158;24.732;2022-12-29T01:47:29;23.87;;;13.53;;
8050;SDS011;4068;42.158;24.732;2022-12-29T01:50:18;24.60;;;14.60;;
8050;SDS011;4068;42.158;24.732;2022-12-29T01:52:51;27.07;;;15.53;;
8050;SDS011;4068;42.158;24.732;2022-12-29T01:55:20;30.47;;;16.53;;
8050;SDS011;4068;42.158;24.732;2022-12-29T01:57:47;33.77;;;16.77;;
8050;SDS011;4068;42.158;24.732;2022-12-29T02:00:16;39.80;;;15.87;;
8050;SDS011;4068;42.158;24.732;2022-12-29T02:02:43;28.63;;;15.57;;
8050;SDS011;4068;42.158;24.732;2022-12-29T02:08:17;28.13;;;15.33;;
8050;SDS011;4068;42.158;24.732;2022-12-29T02:10:45;29.13;;;15.90;;
8050;SDS011;4068;42.158;24.732;2022-12-29T02:13:14;32.77;;;16.33;;
8050;SDS011;4068;42.158;24.732;2022-12-29T02:18:41;29.30;;;15.37;;
8050;SDS011;4068;42.158;24.732;2022-12-29T02:24:27;33.47;;;16.47;;
8050;SDS011;4068;42.158;24.732;2022-12-29T02:43:39;29.50;;;15.67;;
8050;SDS011;4068;42.158;24.732;2022-12-29T02:46:28;35.83;;;16.30;;
8050;SDS011;4068;42.158;24.732;2022-12-29T02:49:17;29.70;;;16.90;;
8050;SDS011;4068;42.158;24.732;2022-12-29T02:51:57;32.03;;;16.13;;
8050;SDS011;4068;42.158;24.732;2022-12-29T02:54:26;34.27;;;16.23;;
8050;SDS011;4068;42.158;24.732;2022-12-29T02:57:11;31.70;;;16.80;;
8050;SDS011;4068;42.158;24.732;2022-12-29T02:59:41;33.30;;;16.90;;
8050;SDS011;4068;42.158;24.732;2022-12-29T03:07:39;32.20;;;17.10;;
8050;SDS011;4068;42.158;24.732;2022-12-29T03:13:17;33.13;;;17.33;;
8050;SDS011;4068;42.158;24.732;2022-12-29T03:16:18;32.43;;;17.93;;
8050;SDS011;4068;42.158;24.732;2022-12-29T03:24:16;35.97;;;19.97;;
8050;SDS011;4068;42.158;24.732;2022-12-29T03:26:44;43.90;;;22.67;;
8050;SDS011;4068;42.158;24.732;2022-12-29T03:29:12;50.47;;;23.37;;
8050;SDS011;4068;42.158;24.732;2022-12-29T03:31:40;42.77;;;21.67;;
8050;SDS011;4068;42.158;24.732;2022-12-29T03:34:07;41.93;;;20.90;;
8050;SDS011;4068;42.158;24.732;2022-12-29T03:36:38;46.33;;;23.30;;
8050;SDS011;4068;42.158;24.732;2022-12-29T03:39:10;45.60;;;22.53;;
8050;SDS011;4068;42.158;24.732;2022-12-29T03:41:37;36.40;;;20.83;;
8050;SDS011;4068;42.158;24.732;2022-12-29T03:44:09;45.23;;;22.47;;
8050;SDS011;4068;42.158;24.732;2022-12-29T03:46:35;43.20;;;22.97;;
8050;SDS011;4068;42.158;24.732;2022-12-29T03:49:01;49.33;;;22.90;;
8050;SDS011;4068;42.158;24.732;2022-12-29T03:51:26;55.13;;;26.57;;
8050;SDS011;4068;42.158;24.732;2022-12-29T03:53:52;43.77;;;21.00;;
8050;SDS011;4068;42.158;24.732;2022-12-29T03:56:17;52.07;;;24.10;;
8050;SDS011;4068;42.158;24.732;2022-12-29T03:58:42;48.20;;;24.63;;
8050;SDS011;4068;42.158;24.732;2022-12-29T04:01:08;48.73;;;24.77;;
8050;SDS011;4068;42.158;24.732;2022-12-29T04:03:33;48.70;;;24.40;;
8050;SDS011;4068;42.158;24.732;2022-12-29T04:05:59;48.70;;;24.53;;
8050;SDS011;4068;42.158;24.732;2022-12-29T04:08:25;65.60;;;29.87;;
8050;SDS011;4068;42.158;24.732;2022-12-29T04:10:50;49.77;;;24.80;;
8050;SDS011;4068;42.158;24.732;2022-12-29T04:13:15;44.53;;;23.93;;
8050;SDS011;4068;42.158;24.732;2022-12-29T04:15:42;49.07;;;27.07;;
8050;SDS011;4068;42.158;24.732;2022-12-29T04:18:08;46.63;;;25.93;;
8050;SDS011;4068;42.158;24.732;2022-12-29T04:20:34;52.80;;;27.57;;
8050;SDS011;4068;42.158;24.732;2022-12-29T04:23:18;50.67;;;26.53;;
8050;SDS011;4068;42.158;24.732;2022-12-29T04:25:44;52.63;;;26.47;;
8050;SDS011;4068;42.158;24.732;2022-12-29T04:28:12;45.30;;;25.57;;
8050;SDS011;4068;42.158;24.732;2022-12-29T04:30:38;51.17;;;25.30;;
8050;SDS011;4068;42.158;24.732;2022-12-29T04:33:03;46.77;;;24.87;;
8050;SDS011;4068;42.158;24.732;2022-12-29T04:35:28;47.03;;;25.20;;
8050;SDS011;4068;42.158;24.732;2022-12-29T04:37:54;41.47;;;22.83;;
8050;SDS011;4068;42.158;24.732;2022-12-29T04:40:19;44.07;;;22.60;;
8050;SDS011;4068;42.158;24.732;2022-12-29T04:42:45;55.10;;;27.70;;
8050;SDS011;4068;42.158;24.732;2022-12-29T04:45:10;58.37;;;28.83;;
8050;SDS011;4068;42.158;24.732;2022-12-29T04:47:36;66.97;;;31.73;;
8050;SDS011;4068;42.158;24.732;2022-12-29T04:50:01;59.37;;;30.33;;
8050;SDS011;4068;42.158;24.732;2022-12-29T04:52:26;65.57;;;31.47;;
8050;SDS011;4068;42.158;24.732;2022-12-29T04:54:52;68.33;;;33.53;;
8050;SDS011;4068;42.158;24.732;2022-12-29T04:57:17;53.37;;;27.33;;
8050;SDS011;4068;42.158;24.732;2022-12-29T04:59:43;55.30;;;28.47;;
8050;SDS011;4068;42.158;24.732;2022-12-29T05:02:08;54.10;;;27.37;;
8050;SDS011;4068;42.158;24.732;2022-12-29T05:04:34;54.53;;;26.83;;
8050;SDS011;4068;42.158;24.732;2022-12-29T05:06:59;52.80;;;27.43;;
8050;SDS011;4068;42.158;24.732;2022-12-29T05:09:24;51.07;;;26.23;;
8050;SDS011;4068;42.158;24.732;2022-12-29T05:11:50;56.93;;;27.37;;
8050;SDS011;4068;42.158;24.732;2022-12-29T05:14:15;65.47;;;25.77;;
8050;SDS011;4068;42.158;24.732;2022-12-29T05:16:41;65.93;;;27.90;;
8050;SDS011;4068;42.158;24.732;2022-12-29T05:19:06;56.23;;;26.97;;
8050;SDS011;4068;42.158;24.732;2022-12-29T05:21:32;61.80;;;25.87;;
8050;SDS011;4068;42.158;24.732;2022-12-29T05:23:57;63.90;;;26.67;;
8050;SDS011;4068;42.158;24.732;2022-12-29T05:26:22;68.80;;;28.60;;
8050;SDS011;4068;42.158;24.732;2022-12-29T05:28:48;57.37;;;28.13;;
8050;SDS011;4068;42.158;24.732;2022-12-29T05:31:13;60.60;;;28.17;;
8050;SDS011;4068;42.158;24.732;2022-12-29T05:33:39;62.00;;;28.50;;
8050;SDS011;4068;42.158;24.732;2022-12-29T05:36:05;67.67;;;27.90;;
8050;SDS011;4068;42.158;24.732;2022-12-29T05:38:31;53.33;;;26.70;;
8050;SDS011;4068;42.158;24.732;2022-12-29T05:40:56;63.30;;;28.50;;
8050;SDS011;4068;42.158;24.732;2022-12-29T05:43:22;59.93;;;27.37;;
8050;SDS011;4068;42.158;24.732;2022-12-29T05:45:50;54.00;;;26.93;;
8050;SDS011;4068;42.158;24.732;2022-12-29T05:48:16;57.30;;;26.13;;
8050;SDS011;4068;42.158;24.732;2022-12-29T05:50:42;55.70;;;26.20;;
8050;SDS011;4068;42.158;24.732;2022-12-29T05:53:07;63.97;;;26.47;;
8050;SDS011;4068;42.158;24.732;2022-12-29T05:55:33;62.90;;;29.03;;
8050;SDS011;4068;42.158;24.732;2022-12-29T05:57:59;61.77;;;26.73;;
8050;SDS011;4068;42.158;24.732;2022-12-29T06:00:24;67.07;;;28.43;;
8050;SDS011;4068;42.158;24.732;2022-12-29T06:02:50;65.43;;;27.47;;
8050;SDS011;4068;42.158;24.732;2022-12-29T06:05:15;50.73;;;26.03;;
8050;SDS011;4068;42.158;24.732;2022-12-29T06:07:41;67.47;;;28.07;;
8050;SDS011;4068;42.158;24.732;2022-12-29T06:10:07;67.40;;;29.40;;
8050;SDS011;4068;42.158;24.732;2022-12-29T06:12:32;76.53;;;29.43;;
8050;SDS011;4068;42.158;24.732;2022-12-29T06:14:58;73.27;;;32.80;;
8050;SDS011;4068;42.158;24.732;2022-12-29T06:17:23;72.50;;;31.33;;
8050;SDS011;4068;42.158;24.732;2022-12-29T06:19:49;69.57;;;32.17;;
8050;SDS011;4068;42.158;24.732;2022-12-29T06:22:14;67.97;;;31.10;;
8050;SDS011;4068;42.158;24.732;2022-12-29T06:24:40;64.83;;;32.00;;
8050;SDS011;4068;42.158;24.732;2022-12-29T06:27:05;79.70;;;32.47;;
8050;SDS011;4068;42.158;24.732;2022-12-29T06:29:31;65.77;;;31.23;;
8050;SDS011;4068;42.158;24.732;2022-12-29T06:31:56;71.27;;;31.70;;
8050;SDS011;4068;42.158;24.732;2022-12-29T06:34:25;83.20;;;38.57;;
8050;SDS011;4068;42.158;24.732;2022-12-29T06:36:51;103.40;;;48.77;;
8050;SDS011;4068;42.158;24.732;2022-12-29T06:39:16;142.57;;;61.37;;
8050;SDS011;4068;42.158;24.732;2022-12-29T06:41:42;198.97;;;86.50;;
8050;SDS011;4068;42.158;24.732;2022-12-29T06:44:07;216.07;;;89.70;;
8050;SDS011;4068;42.158;24.732;2022-12-29T06:46:33;200.20;;;79.07;;
8050;SDS011;4068;42.158;24.732;2022-12-29T06:48:58;173.83;;;71.90;;
8050;SDS011;4068;42.158;24.732;2022-12-29T06:51:23;160.67;;;65.23;;
8050;SDS011;4068;42.158;24.732;2022-12-29T06:53:49;133.77;;;60.93;;
8050;SDS011;4068;42.158;24.732;2022-12-29T06:56:14;136.90;;;61.67;;
8050;SDS011;4068;42.158;24.732;2022-12-29T06:58:40;107.73;;;50.60;;
8050;SDS011;4068;42.158;24.732;2022-12-29T07:01:05;97.77;;;43.63;;
8050;SDS011;4068;42.158;24.732;2022-12-29T07:03:31;81.20;;;35.57;;
8050;SDS011;4068;42.158;24.732;2022-12-29T07:05:56;75.00;;;32.77;;
8050;SDS011;4068;42.158;24.732;2022-12-29T07:08:23;61.57;;;30.60;;
8050;SDS011;4068;42.158;24.732;2022-12-29T07:10:48;59.63;;;29.80;;
8050;SDS011;4068;42.158;24.732;2022-12-29T07:13:14;49.70;;;25.23;;
8050;SDS011;4068;42.158;24.732;2022-12-29T07:15:39;54.17;;;23.33;;
8050;SDS011;4068;42.158;24.732;2022-12-29T07:18:05;51.33;;;22.57;;
8050;SDS011;4068;42.158;24.732;2022-12-29T07:20:30;47.00;;;22.10;;
8050;SDS011;4068;42.158;24.732;2022-12-29T07:22:56;44.70;;;21.50;;
8050;SDS011;4068;42.158;24.732;2022-12-29T07:25:21;55.03;;;22.77;;
8050;SDS011;4068;42.158;24.732;2022-12-29T07:27:47;44.80;;;21.13;;
8050;SDS011;4068;42.158;24.732;2022-12-29T07:30:13;56.33;;;22.30;;
8050;SDS011;4068;42.158;24.732;2022-12-29T07:32:39;37.00;;;20.07;;
8050;SDS011;4068;42.158;24.732;2022-12-29T07:35:05;46.87;;;21.60;;
8050;SDS011;4068;42.158;24.732;2022-12-29T07:37:30;42.57;;;21.43;;
8050;SDS011;4068;42.158;24.732;2022-12-29T07:39:56;54.03;;;21.67;;
8050;SDS011;4068;42.158;24.732;2022-12-29T07:42:21;44.00;;;22.13;;
8050;SDS011;4068;42.158;24.732;2022-12-29T07:44:46;53.23;;;21.50;;
8050;SDS011;4068;42.158;24.732;2022-12-29T07:47:12;45.77;;;20.53;;
8050;SDS011;4068;42.158;24.732;2022-12-29T07:49:37;50.50;;;21.33;;
8050;SDS011;4068;42.158;24.732;2022-12-29T07:52:03;53.60;;;21.33;;
8050;SDS011;4068;42.158;24.732;2022-12-29T07:54:28;44.43;;;20.70;;
8050;SDS011;4068;42.158;24.732;2022-12-29T07:56:54;42.70;;;22.00;;
8050;SDS011;4068;42.158;24.732;2022-12-29T07:59:19;45.67;;;20.70;;
8050;SDS011;4068;42.158;24.732;2022-12-29T08:01:45;45.53;;;20.37;;
8050;SDS011;4068;42.158;24.732;2022-12-29T08:04:11;47.67;;;21.63;;
8050;SDS011;4068;42.158;24.732;2022-12-29T08:06:36;49.03;;;21.57;;
8050;SDS011;4068;42.158;24.732;2022-12-29T08:09:02;40.53;;;21.03;;
8050;SDS011;4068;42.158;24.732;2022-12-29T08:11:28;44.37;;;21.40;;
8050;SDS011;4068;42.158;24.732;2022-12-29T08:13:54;50.83;;;21.00;;
8050;SDS011;4068;42.158;24.732;2022-12-29T08:16:19;46.50;;;20.90;;
8050;SDS011;4068;42.158;24.732;2022-12-29T08:18:45;43.10;;;20.53;;
8050;SDS011;4068;42.158;24.732;2022-12-29T08:21:10;42.90;;;21.37;;
8050;SDS011;4068;42.158;24.732;2022-12-29T08:23:36;41.47;;;21.27;;
8050;SDS011;4068;42.158;24.732;2022-12-29T08:26:04;41.57;;;22.40;;
8050;SDS011;4068;42.158;24.732;2022-12-29T08:28:30;42.50;;;22.57;;
8050;SDS011;4068;42.158;24.732;2022-12-29T08:30:57;41.17;;;21.00;;
8050;SDS011;4068;42.158;24.732;2022-12-29T08:33:24;46.13;;;23.03;;
8050;SDS011;4068;42.158;24.732;2022-12-29T08:35:50;44.23;;;22.47;;
8050;SDS011;4068;42.158;24.732;2022-12-29T08:38:16;38.67;;;21.60;;
8050;SDS011;4068;42.158;24.732;2022-12-29T08:40:42;41.10;;;22.10;;
8050;SDS011;4068;42.158;24.732;2022-12-29T08:43:08;44.73;;;23.57;;
8050;SDS011;4068;42.158;24.732;2022-12-29T08:45:34;42.73;;;22.80;;
8050;SDS011;4068;42.158;24.732;2022-12-29T08:47:59;41.27;;;22.50;;
8050;SDS011;4068;42.158;24.732;2022-12-29T08:50:25;52.90;;;24.83;;
8050;SDS011;4068;42.158;24.732;2022-12-29T08:52:50;47.97;;;23.30;;
8050;SDS011;4068;42.158;24.732;2022-12-29T08:55:16;47.10;;;24.83;;
8050;SDS011;4068;42.158;24.732;2022-12-29T08:57:41;44.03;;;23.40;;
8050;SDS011;4068;42.158;24.732;2022-12-29T09:00:07;47.93;;;25.53;;
8050;SDS011;4068;42.158;24.732;2022-12-29T09:02:33;52.43;;;24.90;;
8050;SDS011;4068;42.158;24.732;2022-12-29T09:04:58;50.73;;;24.67;;
8050;SDS011;4068;42.158;24.732;2022-12-29T09:07:25;58.73;;;24.37;;
8050;SDS011;4068;42.158;24.732;2022-12-29T09:09:50;48.57;;;25.87;;
8050;SDS011;4068;42.158;24.732;2022-12-29T09:12:16;75.43;;;42.63;;
8050;SDS011;4068;42.158;24.732;2022-12-29T09:14:42;43.73;;;23.40;;
8050;SDS011;4068;42.158;24.732;2022-12-29T09:17:09;46.33;;;22.17;;
8050;SDS011;4068;42.158;24.732;2022-12-29T09:19:53;40.87;;;21.93;;
8050;SDS011;4068;42.158;24.732;2022-12-29T09:22:19;40.93;;;22.10;;
8050;SDS011;4068;42.158;24.732;2022-12-29T09:24:44;39.80;;;19.67;;
8050;SDS011;4068;42.158;24.732;2022-12-29T09:27:10;36.43;;;18.47;;
8050;SDS011;4068;42.158;24.732;2022-12-29T09:29:35;32.87;;;17.20;;
8050;SDS011;4068;42.158;24.732;2022-12-29T09:32:01;32.77;;;18.10;;
8050;SDS011;4068;42.158;24.732;2022-12-29T09:34:26;31.95;;;17.70;;
8050;SDS011;4068;42.158;24.732;2022-12-29T09:36:52;37.95;;;18.30;;
8050;SDS011;4068;42.158;24.732;2022-12-29T09:39:17;32.03;;;17.42;;
8050;SDS011;4068;42.158;24.732;2022-12-29T09:41:49;30.57;;;17.23;;
8050;SDS011;4068;42.158;24.732;2022-12-29T09:47:09;31.73;;;17.67;;
8050;SDS011;4068;42.158;24.732;2022-12-29T09:52:15;29.95;;;16.15;;
8050;SDS011;4068;42.158;24.732;2022-12-29T09:54:53;31.23;;;15.95;;
8050;SDS011;4068;42.158;24.732;2022-12-29T09:57:26;26.02;;;13.30;;
8050;SDS011;4068;42.158;24.732;2022-12-29T10:00:01;26.45;;;13.85;;
8050;SDS011;4068;42.158;24.732;2022-12-29T10:02:36;23.88;;;13.38;;
8050;SDS011;4068;42.158;24.732;2022-12-29T10:05:12;30.27;;;13.63;;
8050;SDS011;4068;42.158;24.732;2022-12-29T10:10:53;29.95;;;15.65;;
8050;SDS011;4068;42.158;24.732;2022-12-29T10:13:24;22.27;;;14.45;;
8050;SDS011;4068;42.158;24.732;2022-12-29T10:16:20;24.63;;;15.70;;
8050;SDS011;4068;42.158;24.732;2022-12-29T10:24:21;27.55;;;16.23;;
8050;SDS011;4068;42.158;24.732;2022-12-29T10:26:47;30.08;;;15.43;;
8050;SDS011;4068;42.158;24.732;2022-12-29T10:29:18;42.85;;;16.05;;
8050;SDS011;4068;42.158;24.732;2022-12-29T10:34:21;24.67;;;15.15;;
8050;SDS011;4068;42.158;24.732;2022-12-29T10:36:52;27.48;;;15.27;;
8050;SDS011;4068;42.158;24.732;2022-12-29T10:39:50;29.08;;;15.07;;
8050;SDS011;4068;42.158;24.732;2022-12-29T10:42:23;27.92;;;15.35;;
8050;SDS011;4068;42.158;24.732;2022-12-29T10:45:02;28.33;;;14.57;;
8050;SDS011;4068;42.158;24.732;2022-12-29T10:47:30;30.55;;;15.50;;
8050;SDS011;4068;42.158;24.732;2022-12-29T10:50:00;32.13;;;17.20;;
8050;SDS011;4068;42.158;24.732;2022-12-29T10:52:27;35.20;;;17.83;;
8050;SDS011;4068;42.158;24.732;2022-12-29T10:54:59;43.85;;;18.58;;
8050;SDS011;4068;42.158;24.732;2022-12-29T11:00:01;43.35;;;19.38;;
8050;SDS011;4068;42.158;24.732;2022-12-29T11:02:37;41.83;;;20.40;;
8050;SDS011;4068;42.158;24.732;2022-12-29T11:05:24;38.42;;;18.33;;
8050;SDS011;4068;42.158;24.732;2022-12-29T11:08:19;29.52;;;17.85;;
8050;SDS011;4068;42.158;24.732;2022-12-29T11:10:57;32.30;;;17.23;;
8050;SDS011;4068;42.158;24.732;2022-12-29T11:13:26;31.85;;;17.38;;
8050;SDS011;4068;42.158;24.732;2022-12-29T11:15:55;33.42;;;17.67;;
8050;SDS011;4068;42.158;24.732;2022-12-29T11:18:22;38.88;;;19.88;;
8050;SDS011;4068;42.158;24.732;2022-12-29T11:20:53;39.60;;;21.75;;
8050;SDS011;4068;42.158;24.732;2022-12-29T11:29:03;35.97;;;19.08;;
8050;SDS011;4068;42.158;24.732;2022-12-29T11:31:29;43.90;;;19.13;;
8050;SDS011;4068;42.158;24.732;2022-12-29T11:33:55;31.77;;;17.10;;
8050;SDS011;4068;42.158;24.732;2022-12-29T11:36:21;36.22;;;17.80;;
8050;SDS011;4068;42.158;24.732;2022-12-29T11:38:49;33.90;;;17.63;;
8050;SDS011;4068;42.158;24.732;2022-12-29T11:41:20;38.45;;;18.67;;
8050;SDS011;4068;42.158;24.732;2022-12-29T11:43:49;38.42;;;18.60;;
8050;SDS011;4068;42.158;24.732;2022-12-29T11:46:25;30.60;;;17.70;;
8050;SDS011;4068;42.158;24.732;2022-12-29T11:48:51;33.58;;;17.95;;
8050;SDS011;4068;42.158;24.732;2022-12-29T11:51:23;29.50;;;17.25;;
8050;SDS011;4068;42.158;24.732;2022-12-29T11:54:01;31.27;;;17.13;;
8050;SDS011;4068;42.158;24.732;2022-12-29T11:56:35;33.17;;;16.55;;
8050;SDS011;4068;42.158;24.732;2022-12-29T12:10:48;38.35;;;19.48;;
8050;SDS011;4068;42.158;24.732;2022-12-29T12:13:32;40.70;;;20.25;;
8050;SDS011;4068;42.158;24.732;2022-12-29T12:16:04;43.92;;;19.50;;
8050;SDS011;4068;42.158;24.732;2022-12-29T12:26:18;35.05;;;19.13;;
8050;SDS011;4068;42.158;24.732;2022-12-29T12:28:51;34.33;;;18.85;;
8050;SDS011;4068;42.158;24.732;2022-12-29T12:34:04;38.15;;;20.05;;
8050;SDS011;4068;42.158;24.732;2022-12-29T12:41:51;35.83;;;18.13;;
8050;SDS011;4068;42.158;24.732;2022-12-29T12:44:28;34.65;;;18.90;;
8050;SDS011;4068;42.158;24.732;2022-12-29T12:47:05;38.10;;;20.38;;
8050;SDS011;4068;42.158;24.732;2022-12-29T12:57:50;44.60;;;21.80;;
8050;SDS011;4068;42.158;24.732;2022-12-29T13:01:06;34.28;;;19.13;;
8050;SDS011;4068;42.158;24.732;2022-12-29T13:06:22;36.35;;;20.27;;
8050;SDS011;4068;42.158;24.732;2022-12-29T13:12:02;41.47;;;21.05;;
8050;SDS011;4068;42.158;24.732;2022-12-29T13:17:36;42.25;;;20.92;;
8050;SDS011;4068;42.158;24.732;2022-12-29T13:23:01;35.85;;;19.90;;
8050;SDS011;4068;42.158;24.732;2022-12-29T13:31:14;42.83;;;20.75;;
8050;SDS011;4068;42.158;24.732;2022-12-29T13:39:19;38.45;;;20.60;;
8050;SDS011;4068;42.158;24.732;2022-12-29T13:44:20;48.72;;;23.13;;
8050;SDS011;4068;42.158;24.732;2022-12-29T13:46:47;48.38;;;24.17;;
8050;SDS011;4068;42.158;24.732;2022-12-29T13:49:18;47.75;;;23.65;;
8050;SDS011;4068;42.158;24.732;2022-12-29T13:51:49;44.83;;;21.92;;
8050;SDS011;4068;42.158;24.732;2022-12-29T14:07:45;40.63;;;20.13;;
8050;SDS011;4068;42.158;24.732;2022-12-29T14:10:28;39.30;;;19.42;;
8050;SDS011;4068;42.158;24.732;2022-12-29T14:15:40;36.47;;;19.30;;
8050;SDS011;4068;42.158;24.732;2022-12-29T14:18:18;36.95;;;18.85;;
8050;SDS011;4068;42.158;24.732;2022-12-29T14:26:00;32.60;;;19.08;;
8050;SDS011;4068;42.158;24.732;2022-12-29T14:28:32;38.70;;;19.75;;
8050;SDS011;4068;42.158;24.732;2022-12-29T14:31:00;39.15;;;19.17;;
8050;SDS011;4068;42.158;24.732;2022-12-29T14:33:30;44.33;;;19.20;;
8050;SDS011;4068;42.158;24.732;2022-12-29T14:35:57;33.35;;;18.85;;
8050;SDS011;4068;42.158;24.732;2022-12-29T14:38:47;61.38;;;23.30;;
8050;SDS011;4068;42.158;24.732;2022-12-29T14:49:33;37.55;;;21.55;;
8050;SDS011;4068;42.158;24.732;2022-12-29T14:52:07;36.83;;;20.80;;
8050;SDS011;4068;42.158;24.732;2022-12-29T14:54:41;34.75;;;19.23;;
8050;SDS011;4068;42.158;24.732;2022-12-29T14:57:17;39.20;;;21.13;;
8050;SDS011;4068;42.158;24.732;2022-12-29T14:59:46;40.00;;;21.05;;
8050;SDS011;4068;42.158;24.732;2022-12-29T15:02:19;49.55;;;23.52;;
8050;SDS011;4068;42.158;24.732;2022-12-29T15:04:47;55.70;;;27.23;;
8050;SDS011;4068;42.158;24.732;2022-12-29T15:07:12;45.80;;;24.83;;
8050;SDS011;4068;42.158;24.732;2022-12-29T15:09:44;49.13;;;25.60;;
8050;SDS011;4068;42.158;24.732;2022-12-29T15:14:59;40.97;;;20.08;;
8050;SDS011;4068;42.158;24.732;2022-12-29T15:17:27;37.80;;;20.25;;
8050;SDS011;4068;42.158;24.732;2022-12-29T15:20:00;44.90;;;20.65;;
8050;SDS011;4068;42.158;24.732;2022-12-29T15:22:48;47.17;;;22.27;;
8050;SDS011;4068;42.158;24.732;2022-12-29T15:25:18;40.85;;;21.73;;
8050;SDS011;4068;42.158;24.732;2022-12-29T15:27:48;47.72;;;22.70;;
8050;SDS011;4068;42.158;24.732;2022-12-29T15:30:15;58.58;;;26.92;;
8050;SDS011;4068;42.158;24.732;2022-12-29T15:32:45;48.20;;;21.88;;
8050;SDS011;4068;42.158;24.732;2022-12-29T15:35:22;48.53;;;23.17;;
8050;SDS011;4068;42.158;24.732;2022-12-29T15:37:54;57.13;;;25.33;;
8050;SDS011;4068;42.158;24.732;2022-12-29T15:40:27;44.10;;;23.50;;
8050;SDS011;4068;42.158;24.732;2022-12-29T15:45:47;52.03;;;23.60;;
8050;SDS011;4068;42.158;24.732;2022-12-29T15:48:19;45.20;;;22.73;;
8050;SDS011;4068;42.158;24.732;2022-12-29T15:50:48;57.45;;;24.25;;
8050;SDS011;4068;42.158;24.732;2022-12-29T15:53:29;44.80;;;23.30;;
8050;SDS011;4068;42.158;24.732;2022-12-29T15:55:59;44.33;;;23.55;;
8050;SDS011;4068;42.158;24.732;2022-12-29T15:58:28;53.33;;;24.50;;
8050;SDS011;4068;42.158;24.732;2022-12-29T16:00:56;53.05;;;25.02;;
8050;SDS011;4068;42.158;24.732;2022-12-29T16:03:27;54.58;;;25.23;;
8050;SDS011;4068;42.158;24.732;2022-12-29T16:08:58;67.25;;;27.10;;
8050;SDS011;4068;42.158;24.732;2022-12-29T16:11:49;57.17;;;27.33;;
8050;SDS011;4068;42.158;24.732;2022-12-29T16:14:19;89.10;;;35.78;;
8050;SDS011;4068;42.158;24.732;2022-12-29T16:16:49;74.33;;;32.87;;
8050;SDS011;4068;42.158;24.732;2022-12-29T16:21:49;66.20;;;30.73;;
8050;SDS011;4068;42.158;24.732;2022-12-29T16:24:16;65.00;;;31.63;;
8050;SDS011;4068;42.158;24.732;2022-12-29T16:26:48;74.27;;;31.80;;
8050;SDS011;4068;42.158;24.732;2022-12-29T16:29:16;80.43;;;30.83;;
8050;SDS011;4068;42.158;24.732;2022-12-29T16:31:50;66.30;;;28.80;;
8050;SDS011;4068;42.158;24.732;2022-12-29T16:36:56;63.00;;;28.67;;
8050;SDS011;4068;42.158;24.732;2022-12-29T16:39:30;77.97;;;29.90;;
8050;SDS011;4068;42.158;24.732;2022-12-29T16:42:01;83.27;;;30.90;;
8050;SDS011;4068;42.158;24.732;2022-12-29T16:45:06;68.13;;;29.47;;
8050;SDS011;4068;42.158;24.732;2022-12-29T16:50:43;77.83;;;33.30;;
8050;SDS011;4068;42.158;24.732;2022-12-29T16:53:20;75.67;;;34.53;;
8050;SDS011;4068;42.158;24.732;2022-12-29T16:55:50;82.67;;;36.93;;
8050;SDS011;4068;42.158;24.732;2022-12-29T16:58:24;69.10;;;33.30;;
8050;SDS011;4068;42.158;24.732;2022-12-29T17:00:56;72.90;;;33.87;;
8050;SDS011;4068;42.158;24.732;2022-12-29T17:03:26;81.97;;;35.73;;
8050;SDS011;4068;42.158;24.732;2022-12-29T17:05:56;89.60;;;36.50;;
8050;SDS011;4068;42.158;24.732;2022-12-29T17:08:21;80.77;;;36.63;;
8050;SDS011;4068;42.158;24.732;2022-12-29T17:10:54;77.07;;;35.90;;
8050;SDS011;4068;42.158;24.732;2022-12-29T17:13:50;100.47;;;39.53;;
8050;SDS011;4068;42.158;24.732;2022-12-29T17:16:16;101.50;;;40.00;;
8050;SDS011;4068;42.158;24.732;2022-12-29T17:18:42;89.37;;;37.97;;
8050;SDS011;4068;42.158;24.732;2022-12-29T17:21:07;92.70;;;41.63;;
8050;SDS011;4068;42.158;24.732;2022-12-29T17:23:33;98.47;;;40.20;;
8050;SDS011;4068;42.158;24.732;2022-12-29T17:25:59;92.70;;;41.37;;
8050;SDS011;4068;42.158;24.732;2022-12-29T17:28:26;89.67;;;40.60;;
8050;SDS011;4068;42.158;24.732;2022-12-29T17:30:59;97.80;;;40.63;;
8050;SDS011;4068;42.158;24.732;2022-12-29T17:33:27;89.00;;;41.57;;
8050;SDS011;4068;42.158;24.732;2022-12-29T17:35:55;83.23;;;40.97;;
8050;SDS011;4068;42.158;24.732;2022-12-29T17:38:21;104.20;;;43.17;;
8050;SDS011;4068;42.158;24.732;2022-12-29T17:40:49;87.73;;;42.60;;